Time;durP1;ratioP1;P1;durP2;ratioP2;P2;SDS_P1;SDS_P2;PMS_P1;PMS_P2;Temp;Humidity;BMP_temperature;BMP_pressure;BME280_temperature;BME280_humidity;BME280_pressure;Samples;Min_cycle;Max_cycle;Signal;HPM_P1;HPM_P2
2021/03/08 00:02:18;;;;;;;29.52;11.43;;;;;;;;;;5041480;28;20037;-69
2021/03/08 00:04:44;;;;;;;32.60;12.32;;;;;;;;;;5042146;28;20049;-63
2021/03/08 00:07:10;;;;;;;39.92;13.02;;;;;;;;;;5039149;28;20038;-71
2021/03/08 00:09:38;;;;;;;31.60;11.88;;;;;;;;;;5059544;28;20037;-60
2021/03/08 00:12:05;;;;;;;35.75;12.13;;;;;;;;;;5056806;28;20066;-64
2021/03/08 00:14:31;;;;;;;33.90;11.52;;;;;;;;;;5060957;28;20041;-62
2021/03/08 00:16:58;;;;;;;33.28;11.98;;;;;;;;;;5038994;28;20049;-64
2021/03/08 00:19:25;;;;;;;32.33;11.85;;;;;;;;;;5044074;28;20038;-60
2021/03/08 00:21:51;;;;;;;31.73;11.55;;;;;;;;;;5039447;28;20036;-61
2021/03/08 00:24:17;;;;;;;36.03;11.85;;;;;;;;;;5044790;28;20038;-59
2021/03/08 00:26:43;;;;;;;29.45;10.57;;;;;;;;;;5038358;28;20048;-62
2021/03/08 00:29:15;;;;;;;30.92;11.73;;;;;;;;;;5022602;28;20037;-61
2021/03/08 00:31:41;;;;;;;31.25;11.40;;;;;;;;;;5022127;28;20037;-61
2021/03/08 00:34:08;;;;;;;35.38;11.90;;;;;;;;;;5022435;28;20033;-64
2021/03/08 00:36:34;;;;;;;36.67;11.60;;;;;;;;;;5024982;28;20057;-58
2021/03/08 00:39:03;;;;;;;34.90;12.32;;;;;;;;;;5022102;28;20038;-58
2021/03/08 00:41:29;;;;;;;35.67;11.13;;;;;;;;;;5025736;28;20119;-60
2021/03/08 00:43:55;;;;;;;32.60;11.65;;;;;;;;;;5018412;28;20030;-57
2021/03/08 00:46:21;;;;;;;34.58;12.18;;;;;;;;;;5026264;28;20034;-57
2021/03/08 00:48:50;;;;;;;36.28;12.18;;;;;;;;;;5020037;28;20048;-62
2021/03/08 00:51:17;;;;;;;31.15;11.55;;;;;;;;;;5026946;28;20037;-61
2021/03/08 00:53:43;;;;;;;31.27;11.63;;;;;;;;;;5039215;28;20034;-65
2021/03/08 00:56:09;;;;;;;32.78;10.63;;;;;;;;;;5046392;28;20034;-64
2021/03/08 00:58:40;;;;;;;32.05;11.52;;;;;;;;;;5010953;28;20042;-63
2021/03/08 01:01:06;;;;;;;29.85;10.57;;;;;;;;;;5036109;28;20029;-63
2021/03/08 01:03:32;;;;;;;37.85;11.45;;;;;;;;;;5023430;28;20060;-64
2021/03/08 01:05:58;;;;;;;32.33;11.93;;;;;;;;;;5026649;28;20037;-62
2021/03/08 01:08:34;;;;;;;36.63;11.27;;;;;;;;;;5025342;28;20046;-59
2021/03/08 01:11:00;;;;;;;31.33;11.40;;;;;;;;;;5045955;28;20037;-63
2021/03/08 01:13:26;;;;;;;32.55;11.40;;;;;;;;;;5041681;28;20123;-60
2021/03/08 01:15:52;;;;;;;29.58;10.32;;;;;;;;;;5047186;28;20033;-62
2021/03/08 01:18:18;;;;;;;31.25;11.52;;;;;;;;;;5044457;28;20033;-63
2021/03/08 01:20:44;;;;;;;27.55;10.68;;;;;;;;;;5041843;28;20033;-62
2021/03/08 01:23:11;;;;;;;31.58;10.90;;;;;;;;;;5046116;28;20033;-54
2021/03/08 01:25:38;;;;;;;31.50;10.80;;;;;;;;;;5026361;28;20053;-63
2021/03/08 01:28:05;;;;;;;34.15;11.77;;;;;;;;;;5024704;28;20037;-60
2021/03/08 01:30:32;;;;;;;38.28;11.25;;;;;;;;;;5019693;28;20030;-63
2021/03/08 01:32:58;;;;;;;38.85;12.25;;;;;;;;;;5025295;28;20045;-63
2021/03/08 01:35:24;;;;;;;29.90;11.55;;;;;;;;;;5021984;28;20037;-64
2021/03/08 01:37:51;;;;;;;36.03;10.65;;;;;;;;;;5026207;28;20025;-60
2021/03/08 01:40:19;;;;;;;34.78;11.38;;;;;;;;;;5029175;28;20072;-63
2021/03/08 01:42:45;;;;;;;32.10;10.70;;;;;;;;;;5028400;28;20042;-60
2021/03/08 01:45:12;;;;;;;32.40;10.85;;;;;;;;;;5007245;28;20295;-67
2021/03/08 01:47:39;;;;;;;34.50;11.63;;;;;;;;;;5026025;28;20048;-58
2021/03/08 01:50:07;;;;;;;34.72;12.00;;;;;;;;;;5021504;28;20054;-58
2021/03/08 01:52:33;;;;;;;31.30;11.85;;;;;;;;;;5025113;28;20130;-56
2021/03/08 01:54:59;;;;;;;27.50;10.98;;;;;;;;;;5022428;28;20034;-61
2021/03/08 01:57:25;;;;;;;35.53;12.35;;;;;;;;;;5044252;28;20068;-59
2021/03/08 01:59:53;;;;;;;35.10;12.20;;;;;;;;;;5045692;28;20045;-62
2021/03/08 02:02:19;;;;;;;34.85;12.77;;;;;;;;;;5021294;28;20111;-59
2021/03/08 02:04:45;;;;;;;33.42;12.13;;;;;;;;;;5011208;28;20045;-55
2021/03/08 02:07:11;;;;;;;34.35;11.80;;;;;;;;;;4987445;28;20031;-61
2021/03/08 02:09:39;;;;;;;38.63;11.38;;;;;;;;;;4986694;28;20043;-59
2021/03/08 02:12:11;;;;;;;31.63;12.10;;;;;;;;;;4998342;28;20034;-59
2021/03/08 02:14:46;;;;;;;34.22;11.68;;;;;;;;;;5007971;28;20050;-64
2021/03/08 02:17:15;;;;;;;35.55;13.02;;;;;;;;;;5005222;28;20092;-59
2021/03/08 02:19:58;;;;;;;37.92;11.88;;;;;;;;;;4986808;28;20078;-61
2021/03/08 02:22:35;;;;;;;37.88;11.52;;;;;;;;;;4982138;28;20078;-62
2021/03/08 02:25:07;;;;;;;34.10;13.07;;;;;;;;;;4985972;28;20030;-63
2021/03/08 02:27:43;;;;;;;35.03;12.13;;;;;;;;;;4984773;28;20043;-59
2021/03/08 02:30:35;;;;;;;32.95;12.52;;;;;;;;;;5002001;28;20034;-62
2021/03/08 02:33:03;;;;;;;42.55;13.55;;;;;;;;;;4967842;28;20051;-63
2021/03/08 02:35:30;;;;;;;38.25;13.75;;;;;;;;;;4985543;28;20027;-64
2021/03/08 02:37:57;;;;;;;30.13;11.95;;;;;;;;;;4993487;28;20042;-64
2021/03/08 02:40:24;;;;;;;38.00;13.10;;;;;;;;;;5005270;28;20038;-59
2021/03/08 02:42:52;;;;;;;34.80;12.18;;;;;;;;;;4989216;28;20031;-64
2021/03/08 02:45:19;;;;;;;31.73;12.10;;;;;;;;;;5002240;28;20046;-60
2021/03/08 02:47:47;;;;;;;37.28;13.40;;;;;;;;;;4988721;28;20308;-62
2021/03/08 02:50:15;;;;;;;36.45;12.57;;;;;;;;;;5004818;28;20050;-65
2021/03/08 02:52:44;;;;;;;41.55;13.25;;;;;;;;;;5001603;28;20053;-62
2021/03/08 02:55:12;;;;;;;34.50;12.70;;;;;;;;;;5005468;28;20153;-64
2021/03/08 02:57:40;;;;;;;37.30;12.68;;;;;;;;;;4999564;28;20097;-61
2021/03/08 03:00:09;;;;;;;34.75;13.02;;;;;;;;;;4985109;28;20049;-57
2021/03/08 03:02:36;;;;;;;30.75;12.23;;;;;;;;;;4998454;28;20067;-58
2021/03/08 03:05:06;;;;;;;30.92;11.98;;;;;;;;;;5020661;28;20056;-63
2021/03/08 03:07:32;;;;;;;38.38;13.52;;;;;;;;;;5007715;28;20030;-57
2021/03/08 03:10:14;;;;;;;33.78;13.02;;;;;;;;;;5024415;28;20037;-57
2021/03/08 03:12:43;;;;;;;33.28;12.70;;;;;;;;;;5023827;28;20025;-63
2021/03/08 03:15:10;;;;;;;30.98;12.35;;;;;;;;;;5022913;28;20045;-61
2021/03/08 03:17:37;;;;;;;39.38;12.15;;;;;;;;;;5027035;28;20045;-59
2021/03/08 03:20:05;;;;;;;38.08;12.68;;;;;;;;;;5037590;28;20045;-58
2021/03/08 03:22:32;;;;;;;32.88;12.80;;;;;;;;;;5046502;28;20048;-59
2021/03/08 03:25:00;;;;;;;32.58;11.75;;;;;;;;;;5025456;28;20034;-61
2021/03/08 03:27:27;;;;;;;33.70;12.23;;;;;;;;;;5008716;28;20102;-58
2021/03/08 03:30:03;;;;;;;40.80;12.70;;;;;;;;;;5013593;28;20041;-62
2021/03/08 03:32:29;;;;;;;31.58;12.52;;;;;;;;;;5027873;28;20044;-61
2021/03/08 03:34:55;;;;;;;32.70;11.90;;;;;;;;;;5025220;28;20040;-57
2021/03/08 03:37:23;;;;;;;36.22;13.05;;;;;;;;;;5029307;28;20029;-59
2021/03/08 03:39:52;;;;;;;33.60;11.63;;;;;;;;;;5035832;28;20063;-59
2021/03/08 03:42:19;;;;;;;35.10;12.05;;;;;;;;;;5048536;28;20040;-61
2021/03/08 03:44:45;;;;;;;31.98;12.82;;;;;;;;;;5009238;28;20045;-64
2021/03/08 03:47:11;;;;;;;36.97;11.68;;;;;;;;;;5028208;28;20052;-65
2021/03/08 03:49:37;;;;;;;35.08;11.23;;;;;;;;;;5024420;28;20025;-57
2021/03/08 03:52:04;;;;;;;43.00;12.98;;;;;;;;;;5028124;28;20033;-63
2021/03/08 03:54:30;;;;;;;35.10;11.93;;;;;;;;;;5026402;28;20101;-66
2021/03/08 03:56:59;;;;;;;33.95;12.90;;;;;;;;;;5023883;28;20051;-62
2021/03/08 03:59:26;;;;;;;;;;;;;;;;;;5027700;28;20033;-62
2021/03/08 04:01:55;;;;;;;32.03;11.50;;;;;;;;;;5021390;28;19949;-59
2021/03/08 04:04:26;;;;;;;33.58;11.95;;;;;;;;;;5027605;28;20048;-61
2021/03/08 04:06:52;;;;;;;37.78;13.45;;;;;;;;;;5039908;28;20159;-64
2021/03/08 04:09:23;;;;;;;38.47;12.75;;;;;;;;;;5025536;28;20038;-59
2021/03/08 04:11:51;;;;;;;28.15;11.60;;;;;;;;;;5035614;28;20029;-62
2021/03/08 04:14:18;;;;;;;37.65;13.50;;;;;;;;;;5046245;28;20136;-60
2021/03/08 04:16:47;;;;;;;32.83;11.90;;;;;;;;;;5042207;28;20037;-59
2021/03/08 04:19:21;;;;;;;34.03;12.18;;;;;;;;;;5047067;28;20041;-63
2021/03/08 04:21:48;;;;;;;31.48;11.10;;;;;;;;;;5032856;28;20049;-66
2021/03/08 04:24:14;;;;;;;34.53;12.00;;;;;;;;;;5027393;28;20029;-64
2021/03/08 04:26:40;;;;;;;33.53;11.57;;;;;;;;;;5033186;28;20035;-62
2021/03/08 04:29:11;;;;;;;33.75;11.93;;;;;;;;;;5067573;28;20039;-60
2021/03/08 04:31:37;;;;;;;32.78;12.23;;;;;;;;;;5040554;28;20033;-60
2021/03/08 04:34:04;;;;;;;36.75;13.20;;;;;;;;;;5030212;28;20049;-59
2021/03/08 04:36:31;;;;;;;32.40;11.95;;;;;;;;;;5026442;28;20133;-61
2021/03/08 04:39:01;;;;;;;34.13;12.25;;;;;;;;;;5067625;28;20037;-58
2021/03/08 04:41:28;;;;;;;30.10;12.15;;;;;;;;;;5045091;28;20090;-61
2021/03/08 04:43:54;;;;;;;30.75;12.93;;;;;;;;;;5028819;28;20044;-58
2021/03/08 04:46:21;;;;;;;35.45;11.55;;;;;;;;;;5030616;28;20029;-59
2021/03/08 04:48:49;;;;;;;33.90;11.90;;;;;;;;;;5026714;28;20041;-56
2021/03/08 04:51:16;;;;;;;39.17;12.38;;;;;;;;;;5029337;28;20033;-55
2021/03/08 04:53:43;;;;;;;37.95;12.57;;;;;;;;;;5021791;28;20046;-57
2021/03/08 04:56:09;;;;;;;32.05;12.23;;;;;;;;;;5010938;28;20030;-58
2021/03/08 04:58:37;;;;;;;36.80;13.15;;;;;;;;;;5018672;28;20040;-64
2021/03/08 05:01:04;;;;;;;35.78;12.52;;;;;;;;;;5038421;28;20069;-61
2021/03/08 05:03:31;;;;;;;36.45;12.38;;;;;;;;;;5009030;28;20173;-58
2021/03/08 05:06:01;;;;;;;37.55;14.15;;;;;;;;;;5009927;28;20066;-57
2021/03/08 05:08:40;;;;;;;28.70;11.80;;;;;;;;;;5004693;28;20027;-62
2021/03/08 05:11:07;;;;;;;36.20;12.52;;;;;;;;;;5003913;28;20049;-65
2021/03/08 05:13:34;;;;;;;34.58;12.50;;;;;;;;;;4993882;28;20027;-68
2021/03/08 05:16:01;;;;;;;35.60;12.02;;;;;;;;;;4986122;28;20031;-64
2021/03/08 05:18:29;;;;;;;35.85;12.40;;;;;;;;;;4989002;28;20042;-61
2021/03/08 05:20:55;;;;;;;35.05;12.88;;;;;;;;;;5005194;28;20039;-56
2021/03/08 05:23:22;;;;;;;32.38;11.75;;;;;;;;;;4999074;28;20054;-66
2021/03/08 05:25:48;;;;;;;37.67;12.15;;;;;;;;;;4987048;28;20039;-63
2021/03/08 05:28:16;;;;;;;39.17;13.52;;;;;;;;;;4985599;28;20047;-66
2021/03/08 05:30:42;;;;;;;34.90;13.10;;;;;;;;;;4986745;28;20142;-59
2021/03/08 05:33:11;;;;;;;32.45;12.27;;;;;;;;;;4987120;28;20034;-62
2021/03/08 05:35:37;;;;;;;31.00;12.35;;;;;;;;;;4981494;28;20124;-64
2021/03/08 05:38:20;;;;;;;34.67;12.98;;;;;;;;;;4987157;28;20043;-60
2021/03/08 05:40:46;;;;;;;34.13;11.93;;;;;;;;;;4981706;28;20053;-60
2021/03/08 05:43:13;;;;;;;34.63;12.07;;;;;;;;;;5018716;28;20050;-65
2021/03/08 05:45:44;;;;;;;35.30;12.23;;;;;;;;;;4989031;28;20046;-61
2021/03/08 05:48:41;;;;;;;36.83;12.88;;;;;;;;;;4986547;28;20041;-64
2021/03/08 05:51:21;;;;;;;33.75;11.63;;;;;;;;;;4982876;28;20124;-60
2021/03/08 05:54:05;;;;;;;32.95;12.40;;;;;;;;;;4986317;28;20054;-61
2021/03/08 05:56:33;;;;;;;37.10;12.38;;;;;;;;;;4964270;28;20039;-62
2021/03/08 05:59:16;;;;;;;35.30;12.18;;;;;;;;;;4985172;28;20035;-64
2021/03/08 06:02:04;;;;;;;37.20;13.02;;;;;;;;;;4998377;28;20030;-67
2021/03/08 06:04:45;;;;;;;36.22;12.73;;;;;;;;;;5003033;28;20046;-67
2021/03/08 06:07:22;;;;;;;38.78;13.48;;;;;;;;;;4983667;28;20038;-68
2021/03/08 06:09:54;;;;;;;41.55;14.77;;;;;;;;;;4986468;28;20035;-62
2021/03/08 06:12:24;;;;;;;35.17;13.60;;;;;;;;;;4992643;28;20042;-63
2021/03/08 06:14:53;;;;;;;39.70;14.18;;;;;;;;;;4994139;28;20053;-68
2021/03/08 06:17:21;;;;;;;40.92;14.68;;;;;;;;;;4989208;28;20042;-70
2021/03/08 06:19:47;;;;;;;31.58;12.43;;;;;;;;;;4993318;28;20045;-67
2021/03/08 06:22:14;;;;;;;36.95;13.23;;;;;;;;;;5012883;28;20132;-70
2021/03/08 06:24:42;;;;;;;39.53;13.90;;;;;;;;;;4994863;28;20039;-67
2021/03/08 06:27:09;;;;;;;37.53;13.45;;;;;;;;;;4992337;28;20030;-68
2021/03/08 06:29:38;;;;;;;43.95;14.35;;;;;;;;;;4993346;28;20042;-71
2021/03/08 06:32:05;;;;;;;39.50;14.48;;;;;;;;;;4997781;28;20050;-71
2021/03/08 06:34:32;;;;;;;36.20;13.50;;;;;;;;;;4998358;28;20122;-69
2021/03/08 06:37:02;;;;;;;36.40;13.05;;;;;;;;;;4989894;28;20038;-69
2021/03/08 06:39:28;;;;;;;40.17;14.27;;;;;;;;;;4990790;28;20073;-71
2021/03/08 06:41:54;;;;;;;37.90;13.77;;;;;;;;;;4987924;28;20034;-70
2021/03/08 06:44:20;;;;;;;47.78;18.60;;;;;;;;;;4992835;28;20133;-68
2021/03/08 06:46:46;;;;;;;54.90;20.25;;;;;;;;;;4987451;28;20034;-69
2021/03/08 06:49:12;;;;;;;47.08;16.63;;;;;;;;;;4991774;28;20042;-70
2021/03/08 06:51:53;;;;;;;40.00;13.65;;;;;;;;;;4989724;28;20061;-67
2021/03/08 06:54:20;;;;;;;41.33;14.50;;;;;;;;;;4993041;28;20062;-64
2021/03/08 06:56:47;;;;;;;43.10;14.23;;;;;;;;;;4989618;28;20075;-61
2021/03/08 06:59:13;;;;;;;41.70;14.45;;;;;;;;;;4990350;28;20070;-69
2021/03/08 07:01:40;;;;;;;42.65;12.88;;;;;;;;;;4990472;28;20042;-67
2021/03/08 07:04:11;;;;;;;35.85;13.55;;;;;;;;;;5001815;28;20049;-64
2021/03/08 07:06:38;;;;;;;43.30;13.73;;;;;;;;;;5012482;28;20041;-67
2021/03/08 07:09:12;;;;;;;43.55;14.38;;;;;;;;;;5009205;28;20046;-67
2021/03/08 07:11:40;;;;;;;38.53;14.55;;;;;;;;;;5011788;28;20045;-66
2021/03/08 07:14:22;;;;;;;38.15;13.60;;;;;;;;;;5009710;28;20128;-65
2021/03/08 07:16:48;;;;;;;48.22;17.42;;;;;;;;;;5008021;28;20042;-64
2021/03/08 07:19:15;;;;;;;43.35;15.05;;;;;;;;;;5011281;28;20096;-59
2021/03/08 07:21:42;;;;;;;36.00;13.73;;;;;;;;;;5003879;28;20038;-65
2021/03/08 07:24:12;;;;;;;40.47;14.00;;;;;;;;;;5010564;28;20291;-60
2021/03/08 07:26:47;;;;;;;40.20;14.02;;;;;;;;;;5023562;28;20181;-61
2021/03/08 07:29:14;;;;;;;43.50;14.43;;;;;;;;;;5020474;28;20092;-60
2021/03/08 07:31:40;;;;;;;46.45;16.40;;;;;;;;;;5024277;28;20030;-61
2021/03/08 07:34:09;;;;;;;42.10;14.75;;;;;;;;;;5010883;28;20050;-59
2021/03/08 07:36:36;;;;;;;42.42;15.02;;;;;;;;;;5004379;28;20100;-69
2021/03/08 07:39:12;;;;;;;43.25;14.73;;;;;;;;;;5000346;28;20045;-70
2021/03/08 07:41:49;;;;;;;45.05;15.07;;;;;;;;;;5020772;28;20030;-69
2021/03/08 07:44:16;;;;;;;39.03;14.43;;;;;;;;;;5008283;28;20042;-71
2021/03/08 07:46:42;;;;;;;34.50;13.07;;;;;;;;;;5021320;28;20042;-68
2021/03/08 07:49:31;;;;;;;44.30;13.32;;;;;;;;;;5004770;28;20073;-69
2021/03/08 07:52:01;;;;;;;38.97;12.75;;;;;;;;;;5024145;28;20044;-72
2021/03/08 07:54:27;;;;;;;38.13;14.73;;;;;;;;;;5014743;28;20046;-70
2021/03/08 07:56:54;;;;;;;38.92;15.13;;;;;;;;;;5004740;28;20035;-73
2021/03/08 07:59:21;;;;;;;37.33;14.90;;;;;;;;;;5004260;28;20050;-71
2021/03/08 08:01:48;;;;;;;34.97;13.15;;;;;;;;;;5026958;28;20033;-62
2021/03/08 08:04:14;;;;;;;38.85;13.82;;;;;;;;;;5013496;28;20038;-70
2021/03/08 08:06:40;;;;;;;42.40;15.68;;;;;;;;;;4998234;28;20042;-66
2021/03/08 08:09:11;;;;;;;38.92;13.73;;;;;;;;;;5003718;28;20123;-62
2021/03/08 08:11:37;;;;;;;39.92;13.98;;;;;;;;;;4999364;28;20035;-70
2021/03/08 08:14:04;;;;;;;43.03;13.15;;;;;;;;;;5004368;28;20049;-63
2021/03/08 08:16:32;;;;;;;40.53;14.27;;;;;;;;;;4999992;28;20069;-67
2021/03/08 08:19:03;;;;;;;41.53;14.68;;;;;;;;;;5001523;28;20057;-65
2021/03/08 08:21:32;;;;;;;43.72;13.85;;;;;;;;;;4986549;28;20038;-65
2021/03/08 08:24:03;;;;;;;39.30;14.45;;;;;;;;;;4983253;28;20031;-65
2021/03/08 08:26:29;;;;;;;42.78;14.48;;;;;;;;;;4981121;28;20053;-60
2021/03/08 08:28:57;;;;;;;53.13;13.60;;;;;;;;;;4983714;28;20050;-67
2021/03/08 08:31:24;;;;;;;39.35;14.45;;;;;;;;;;4990568;28;20046;-68
2021/03/08 08:33:50;;;;;;;40.28;14.32;;;;;;;;;;5005336;28;20070;-63
2021/03/08 08:36:17;;;;;;;36.75;13.85;;;;;;;;;;4999039;28;20181;-63
2021/03/08 08:39:12;;;;;;;42.90;15.00;;;;;;;;;;5004918;28;20049;-64
2021/03/08 08:41:38;;;;;;;39.92;14.45;;;;;;;;;;4993861;28;20058;-65
2021/03/08 08:44:38;;;;;;;37.85;13.30;;;;;;;;;;4983538;28;20154;-59
2021/03/08 08:47:19;;;;;;;35.10;12.35;;;;;;;;;;4990472;28;20034;-62
2021/03/08 08:49:48;;;;;;;43.13;15.02;;;;;;;;;;5003668;28;20058;-59
2021/03/08 08:52:15;;;;;;;42.38;15.25;;;;;;;;;;4992817;28;20041;-60
2021/03/08 08:54:54;;;;;;;41.22;15.57;;;;;;;;;;4983707;28;20047;-59
2021/03/08 08:57:20;;;;;;;42.72;13.98;;;;;;;;;;4982619;28;20120;-66
2021/03/08 08:59:49;;;;;;;39.42;13.25;;;;;;;;;;4983241;28;20034;-64
2021/03/08 09:02:32;;;;;;;39.83;15.13;;;;;;;;;;4982663;28;20054;-71
2021/03/08 09:04:58;;;;;;;41.28;13.80;;;;;;;;;;5005573;28;20054;-70
2021/03/08 09:07:24;;;;;;;43.10;14.18;;;;;;;;;;5021641;28;20025;-62
2021/03/08 09:09:57;;;;;;;39.67;13.80;;;;;;;;;;5014075;28;20040;-65
2021/03/08 09:12:30;;;;;;;43.20;16.15;;;;;;;;;;5019148;28;20029;-72
2021/03/08 09:14:58;;;;;;;36.42;13.35;;;;;;;;;;5004264;28;20075;-71
2021/03/08 09:17:25;;;;;;;34.90;13.27;;;;;;;;;;5021308;28;20041;-70
2021/03/08 09:20:09;;;;;;;39.30;14.45;;;;;;;;;;5017247;28;20043;-72
2021/03/08 09:22:42;;;;;;;37.22;13.93;;;;;;;;;;5019186;28;20033;-69
2021/03/08 09:25:15;;;;;;;36.47;12.98;;;;;;;;;;5024957;28;20041;-73
2021/03/08 09:27:43;;;;;;;34.10;12.35;;;;;;;;;;5017084;28;20045;-70
2021/03/08 09:30:12;;;;;;;42.28;14.30;;;;;;;;;;5016754;28;20102;-71
2021/03/08 09:32:49;;;;;;;40.95;13.55;;;;;;;;;;5017218;28;20037;-64
2021/03/08 09:35:16;;;;;;;33.17;13.68;;;;;;;;;;5014834;28;20052;-67
2021/03/08 09:37:44;;;;;;;36.08;14.10;;;;;;;;;;5016662;28;20042;-66
2021/03/08 09:40:18;;;;;;;40.03;14.00;;;;;;;;;;5011480;28;20038;-62
2021/03/08 09:42:44;;;;;;;39.90;13.65;;;;;;;;;;5017225;28;20123;-67
2021/03/08 09:45:23;;;;;;;39.17;13.90;;;;;;;;;;5025185;28;20049;-71
2021/03/08 09:47:51;;;;;;;35.53;13.70;;;;;;;;;;5028420;28;20069;-64
2021/03/08 09:50:18;;;;;;;37.63;13.55;;;;;;;;;;5024670;28;20045;-66
2021/03/08 09:52:45;;;;;;;40.03;13.68;;;;;;;;;;5028702;28;20033;-63
2021/03/08 09:55:15;;;;;;;34.92;13.18;;;;;;;;;;5025250;28;20033;-62
2021/03/08 09:57:41;;;;;;;38.78;13.95;;;;;;;;;;5046283;28;20053;-61
2021/03/08 10:00:09;;;;;;;33.40;13.13;;;;;;;;;;5021351;28;20042;-67
2021/03/08 10:02:35;;;;;;;42.10;14.65;;;;;;;;;;5009309;28;20048;-62
2021/03/08 10:05:01;;;;;;;37.00;13.63;;;;;;;;;;4985142;28;20041;-65
2021/03/08 10:07:28;;;;;;;36.65;13.45;;;;;;;;;;4986511;28;20038;-62
2021/03/08 10:10:14;;;;;;;37.30;13.20;;;;;;;;;;4977095;28;20054;-63
2021/03/08 10:12:41;;;;;;;34.13;13.30;;;;;;;;;;5004876;28;20057;-65
2021/03/08 10:15:08;;;;;;;36.75;13.05;;;;;;;;;;4995990;28;20039;-61
2021/03/08 10:17:34;;;;;;;33.13;11.75;;;;;;;;;;4991907;28;20079;-60
2021/03/08 10:20:05;;;;;;;42.40;14.80;;;;;;;;;;4996792;28;20050;-60
2021/03/08 10:22:37;;;;;;;45.15;14.13;;;;;;;;;;4995925;28;20089;-64
2021/03/08 10:25:17;;;;;;;39.67;12.93;;;;;;;;;;5015029;28;20058;-71
2021/03/08 10:27:43;;;;;;;29.50;10.52;;;;;;;;;;4994395;28;20094;-70
2021/03/08 10:30:12;;;;;;;33.58;12.13;;;;;;;;;;5006841;28;20051;-63
2021/03/08 10:32:38;;;;;;;34.42;11.93;;;;;;;;;;4995406;28;20065;-65
2021/03/08 10:35:05;;;;;;;28.55;9.93;;;;;;;;;;5010115;28;20061;-68
2021/03/08 10:37:31;;;;;;;32.75;12.60;;;;;;;;;;4991194;28;20083;-67
2021/03/08 10:39:58;;;;;;;33.95;11.77;;;;;;;;;;4992560;28;20049;-70
2021/03/08 10:42:24;;;;;;;33.63;12.38;;;;;;;;;;4989598;28;20049;-66
2021/03/08 10:44:52;;;;;;;29.67;10.68;;;;;;;;;;5000248;28;20034;-69
2021/03/08 10:47:19;;;;;;;25.85;10.57;;;;;;;;;;5006963;28;20042;-68
2021/03/08 10:49:49;;;;;;;30.17;11.20;;;;;;;;;;5003405;28;20034;-70
2021/03/08 10:52:15;;;;;;;32.72;12.60;;;;;;;;;;4992962;28;20049;-74
2021/03/08 10:54:41;;;;;;;30.13;12.02;;;;;;;;;;5020829;28;20050;-74
2021/03/08 10:57:08;;;;;;;33.60;11.88;;;;;;;;;;4991188;28;20030;-68
2021/03/08 10:59:34;;;;;;;30.50;11.90;;;;;;;;;;4995520;28;20034;-65
2021/03/08 11:02:01;;;;;;;33.22;11.27;;;;;;;;;;5009528;28;20172;-61
2021/03/08 11:04:27;;;;;;;31.65;12.48;;;;;;;;;;5004865;28;20042;-67
2021/03/08 11:06:53;;;;;;;37.60;11.70;;;;;;;;;;5010489;28;20034;-67
2021/03/08 11:09:25;;;;;;;35.05;13.77;;;;;;;;;;5019944;28;20069;-64
2021/03/08 11:11:51;;;;;;;35.75;12.05;;;;;;;;;;5015644;28;20075;-68
2021/03/08 11:14:19;;;;;;;30.27;11.30;;;;;;;;;;5008638;28;20042;-66
2021/03/08 11:16:49;;;;;;;28.95;10.63;;;;;;;;;;5018127;28;20042;-63
2021/03/08 11:19:16;;;;;;;28.08;10.80;;;;;;;;;;5011657;28;20058;-64
2021/03/08 11:21:43;;;;;;;29.15;11.77;;;;;;;;;;5009347;28;20037;-65
2021/03/08 11:24:20;;;;;;;33.27;11.57;;;;;;;;;;5008356;28;20069;-68
2021/03/08 11:27:05;;;;;;;33.40;11.27;;;;;;;;;;5019515;28;20058;-69
2021/03/08 11:29:34;;;;;;;33.47;12.07;;;;;;;;;;5007954;28;20272;-63
2021/03/08 11:32:00;;;;;;;;;;;;;;;;;;5012914;28;20030;-66
2021/03/08 11:49:58;;;;;;;30.17;9.93;;;;;;;;;;5256274;23;20030;-68
2021/03/08 11:52:24;;;;;;;29.23;10.68;;;;;;;;;;4986972;28;20034;-67
2021/03/08 11:54:50;;;;;;;34.92;11.63;;;;;;;;;;4995081;28;20055;-68
2021/03/08 11:57:15;;;;;;;27.00;10.68;;;;;;;;;;5023942;28;20037;-65
2021/03/08 11:59:45;;;;;;;28.35;10.32;;;;;;;;;;5001012;28;20045;-62
2021/03/08 12:02:11;;;;;;;30.42;11.75;;;;;;;;;;5002605;28;20045;-65
2021/03/08 12:04:37;;;;;;;28.23;11.25;;;;;;;;;;5000449;28;20127;-63
2021/03/08 12:07:04;;;;;;;30.98;11.73;;;;;;;;;;5004195;28;20119;-65
2021/03/08 12:09:33;;;;;;;28.75;10.80;;;;;;;;;;5004323;28;20044;-64
2021/03/08 12:11:59;;;;;;;28.77;11.00;;;;;;;;;;4999537;28;20049;-65
2021/03/08 12:14:26;;;;;;;30.17;12.02;;;;;;;;;;5001819;28;20037;-64
2021/03/08 12:16:52;;;;;;;31.27;12.10;;;;;;;;;;5000905;28;20073;-58
2021/03/08 12:19:18;;;;;;;28.35;11.75;;;;;;;;;;5004391;28;20149;-59
2021/03/08 12:21:44;;;;;;;31.48;10.40;;;;;;;;;;5000092;28;20038;-65
2021/03/08 12:24:11;;;;;;;28.00;11.05;;;;;;;;;;5002196;28;20041;-62
2021/03/08 12:26:38;;;;;;;27.15;10.65;;;;;;;;;;4990265;28;20172;-66
2021/03/08 12:29:04;;;;;;;29.25;11.80;;;;;;;;;;5002856;28;20058;-63
2021/03/08 12:31:30;;;;;;;32.47;12.30;;;;;;;;;;5000494;28;20095;-61
2021/03/08 12:33:58;;;;;;;26.35;11.48;;;;;;;;;;5005007;28;20034;-65
2021/03/08 12:36:24;;;;;;;29.65;10.73;;;;;;;;;;5014615;28;20046;-60
2021/03/08 12:38:50;;;;;;;25.08;9.15;;;;;;;;;;5004790;28;20096;-61
2021/03/08 12:41:17;;;;;;;23.92;8.68;;;;;;;;;;4999873;28;20034;-64
2021/03/08 12:43:43;;;;;;;20.50;8.73;;;;;;;;;;5002985;28;20044;-70
2021/03/08 12:46:09;;;;;;;23.73;9.90;;;;;;;;;;5002263;28;20062;-69
2021/03/08 12:48:35;;;;;;;22.25;8.18;;;;;;;;;;5025022;28;20056;-63
2021/03/08 12:51:01;;;;;;;20.05;8.18;;;;;;;;;;5007742;28;20081;-67
2021/03/08 12:53:27;;;;;;;21.83;7.50;;;;;;;;;;5005093;28;20049;-63
2021/03/08 12:55:53;;;;;;;18.27;7.07;;;;;;;;;;5006640;28;20053;-62
2021/03/08 12:58:20;;;;;;;24.55;7.82;;;;;;;;;;5005028;28;20077;-63
2021/03/08 13:00:46;;;;;;;20.42;7.57;;;;;;;;;;5006961;28;20084;-63
2021/03/08 13:03:12;;;;;;;18.10;7.43;;;;;;;;;;5005798;28;20085;-67
2021/03/08 13:05:38;;;;;;;18.42;7.05;;;;;;;;;;5007861;28;20085;-70
2021/03/08 13:08:04;;;;;;;16.98;7.07;;;;;;;;;;5002923;28;20049;-70
2021/03/08 13:10:31;;;;;;;19.52;6.47;;;;;;;;;;5000525;28;20089;-62
2021/03/08 13:12:57;;;;;;;17.33;6.70;;;;;;;;;;4984032;28;20034;-66
2021/03/08 13:15:24;;;;;;;20.80;6.82;;;;;;;;;;4989050;28;20034;-65
2021/03/08 13:17:50;;;;;;;16.08;6.90;;;;;;;;;;4981315;28;20035;-64
2021/03/08 13:20:17;;;;;;;18.65;6.82;;;;;;;;;;4968658;28;20035;-63
2021/03/08 13:22:43;;;;;;;19.25;6.30;;;;;;;;;;4969575;28;20051;-67
2021/03/08 13:25:10;;;;;;;14.35;5.72;;;;;;;;;;4989131;28;20124;-67
2021/03/08 13:27:37;;;;;;;15.43;6.10;;;;;;;;;;4988323;28;20042;-64
2021/03/08 13:30:03;;;;;;;14.98;5.47;;;;;;;;;;4981054;28;20053;-68
2021/03/08 13:32:30;;;;;;;13.75;5.30;;;;;;;;;;4967072;28;20055;-61
2021/03/08 13:34:56;;;;;;;12.60;5.30;;;;;;;;;;4981705;28;20049;-66
2021/03/08 13:37:22;;;;;;;14.02;5.10;;;;;;;;;;4988367;28;20034;-65
2021/03/08 13:39:51;;;;;;;15.07;5.72;;;;;;;;;;4983944;28;20050;-67
2021/03/08 13:42:17;;;;;;;14.90;5.38;;;;;;;;;;4996312;28;20090;-63
2021/03/08 13:44:43;;;;;;;16.48;6.55;;;;;;;;;;4994855;28;20050;-62
2021/03/08 13:47:09;;;;;;;14.65;5.35;;;;;;;;;;4998257;28;20041;-60
2021/03/08 13:49:36;;;;;;;13.13;5.32;;;;;;;;;;4977825;28;20046;-62
2021/03/08 13:52:02;;;;;;;13.50;5.05;;;;;;;;;;4964487;28;20051;-62
2021/03/08 13:54:29;;;;;;;16.73;5.05;;;;;;;;;;4963668;28;20043;-62
2021/03/08 13:56:55;;;;;;;12.02;4.65;;;;;;;;;;4963389;28;20054;-62
2021/03/08 13:59:21;;;;;;;11.55;4.68;;;;;;;;;;4961549;28;20063;-62
2021/03/08 14:01:47;;;;;;;14.85;5.28;;;;;;;;;;4964255;28;20080;-59
2021/03/08 14:04:13;;;;;;;14.02;6.18;;;;;;;;;;4960156;28;20061;-69
2021/03/08 14:06:40;;;;;;;16.38;5.05;;;;;;;;;;4964714;28;20039;-67
2021/03/08 14:09:06;;;;;;;16.30;5.18;;;;;;;;;;4965094;28;20095;-67
2021/03/08 14:11:32;;;;;;;12.35;5.38;;;;;;;;;;4979129;28;20051;-64
2021/03/08 14:13:58;;;;;;;14.68;5.88;;;;;;;;;;4983862;28;20042;-65
2021/03/08 14:16:24;;;;;;;15.52;6.15;;;;;;;;;;4964086;28;20062;-60
2021/03/08 14:18:50;;;;;;;16.58;5.90;;;;;;;;;;4964805;28;20047;-66
2021/03/08 14:21:16;;;;;;;19.23;6.95;;;;;;;;;;4975780;28;20149;-63
2021/03/08 14:23:43;;;;;;;21.27;7.32;;;;;;;;;;4985873;28;20140;-62
2021/03/08 14:26:09;;;;;;;18.60;7.50;;;;;;;;;;4970632;28;20043;-69
2021/03/08 14:28:35;;;;;;;23.23;7.57;;;;;;;;;;4963585;28;20058;-64
2021/03/08 14:31:01;;;;;;;21.05;8.00;;;;;;;;;;4961134;28;20027;-65
2021/03/08 14:33:27;;;;;;;19.88;7.45;;;;;;;;;;4964676;28;20071;-65
2021/03/08 14:35:53;;;;;;;26.20;8.65;;;;;;;;;;4961939;28;20043;-66
2021/03/08 14:38:19;;;;;;;23.33;8.27;;;;;;;;;;4964578;28;20116;-66
2021/03/08 14:40:46;;;;;;;21.20;8.25;;;;;;;;;;4960756;28;20055;-64
2021/03/08 14:43:12;;;;;;;18.90;8.32;;;;;;;;;;4980879;28;20046;-65